Time;durP1;ratioP1;P1;durP2;ratioP2;P2;SDS_P1;SDS_P2;PMS_P1;PMS_P2;Temp;Humidity;BMP_temperature;BMP_pressure;BME280_temperature;BME280_humidity;BME280_pressure;Samples;Min_cycle;Max_cycle;Signal;HPM_P1;HPM_P2
2022/09/25 00:00:53;;;;;;;29.80;25.63;;;12.50;99.90;;;;;;5034136;28;20261;-75
2022/09/25 00:03:20;;;;;;;28.58;25.42;;;12.50;99.90;;;;;;5028712;28;20239;-74
2022/09/25 00:05:47;;;;;;;26.88;24.05;;;12.60;99.90;;;;;;5030673;28;20177;-75
2022/09/25 00:08:14;;;;;;;30.63;26.20;;;12.60;99.90;;;;;;5044306;28;20301;-74
2022/09/25 00:10:48;;;;;;;30.45;26.08;;;12.70;99.90;;;;;;5040520;28;20278;-74
2022/09/25 00:13:16;;;;;;;28.67;24.88;;;12.70;99.90;;;;;;5031901;28;20183;-75
2022/09/25 00:15:51;;;;;;;33.95;28.33;;;12.60;99.90;;;;;;5043860;28;20655;-76
2022/09/25 00:19:48;;;;;;;33.40;26.30;;;12.70;99.90;;;;;;5031529;28;20283;-76
2022/09/25 00:21:08;;;;;;;36.45;25.67;;;12.70;99.90;;;;;;5029096;28;20188;-75
2022/09/25 00:23:34;;;;;;;29.42;26.17;;;12.60;99.90;;;;;;5033910;28;20184;-75
2022/09/25 00:26:01;;;;;;;35.95;24.02;;;12.60;99.90;;;;;;5035219;28;20176;-75
2022/09/25 00:28:30;;;;;;;27.98;24.27;;;12.70;99.90;;;;;;5038622;28;20187;-77
2022/09/25 00:30:56;;;;;;;25.20;22.55;;;12.70;99.90;;;;;;5043893;28;20203;-75
2022/09/25 00:33:23;;;;;;;25.92;23.33;;;12.70;99.90;;;;;;5037526;28;20181;-75
2022/09/25 00:35:48;;;;;;;27.90;24.38;;;12.60;99.90;;;;;;5033850;28;20652;-76
2022/09/25 00:38:14;;;;;;;26.83;22.90;;;12.60;99.90;;;;;;5042541;28;20191;-76
2022/09/25 00:40:40;;;;;;;26.05;22.25;;;12.50;99.90;;;;;;5037393;28;20212;-77
2022/09/25 00:43:32;;;;;;;28.88;22.98;;;12.50;99.90;;;;;;5043282;28;20176;-76
2022/09/25 00:45:58;;;;;;;29.92;24.10;;;12.50;99.90;;;;;;5039468;28;20194;-76
2022/09/25 00:48:24;;;;;;;27.83;23.88;;;12.40;99.90;;;;;;5044977;28;20225;-76
2022/09/25 00:50:54;;;;;;;25.48;22.77;;;12.50;99.90;;;;;;5038654;28;20208;-76
2022/09/25 00:53:36;;;;;;;28.63;24.02;;;12.40;99.90;;;;;;5042015;28;20220;-76
2022/09/25 00:56:02;;;;;;;25.17;22.23;;;12.50;99.90;;;;;;5042228;28;20563;-76
2022/09/25 00:58:32;;;;;;;25.75;22.85;;;12.50;99.90;;;;;;5030477;28;20230;-76
2022/09/25 01:00:58;;;;;;;26.85;22.90;;;12.50;99.90;;;;;;5044769;28;20204;-77
2022/09/25 01:03:26;;;;;;;26.38;23.58;;;12.50;99.90;;;;;;5041092;28;20647;-75
2022/09/25 01:05:53;;;;;;;29.10;25.17;;;12.40;99.90;;;;;;5042164;28;20370;-76
2022/09/25 01:08:24;;;;;;;30.98;25.00;;;12.30;99.90;;;;;;5042965;28;20171;-77
2022/09/25 01:10:50;;;;;;;31.70;26.85;;;12.30;99.90;;;;;;5041335;28;20204;-77
2022/09/25 01:13:16;;;;;;;35.83;27.42;;;12.20;99.90;;;;;;5038950;28;20235;-76
2022/09/25 01:15:56;;;;;;;32.53;27.90;;;12.30;99.90;;;;;;5035481;28;20173;-75
2022/09/25 01:18:40;;;;;;;33.03;26.98;;;12.30;99.90;;;;;;5042105;28;20650;-79
2022/09/25 01:21:27;;;;;;;31.80;27.50;;;12.30;99.90;;;;;;5038525;28;20253;-75
2022/09/25 01:24:21;;;;;;;31.38;26.42;;;12.30;99.90;;;;;;5042436;28;20568;-76
2022/09/25 01:27:09;;;;;;;34.05;27.63;;;12.30;99.90;;;;;;5042976;28;20176;-76
2022/09/25 01:29:47;;;;;;;39.38;30.58;;;12.40;99.90;;;;;;5033706;28;20215;-76
2022/09/25 01:32:18;;;;;;;37.45;28.63;;;12.40;99.90;;;;;;5031576;28;20192;-77
2022/09/25 01:34:50;;;;;;;36.17;28.63;;;12.30;99.90;;;;;;5039281;28;20185;-76
2022/09/25 01:37:18;;;;;;;35.80;28.33;;;12.30;99.90;;;;;;5043382;28;20180;-76
2022/09/25 01:40:07;;;;;;;36.63;29.75;;;12.30;99.90;;;;;;5039837;28;20180;-76
2022/09/25 01:42:41;;;;;;;34.85;26.83;;;12.30;99.90;;;;;;5042225;28;20568;-77
2022/09/25 01:45:09;;;;;;;45.53;28.77;;;12.30;99.90;;;;;;5034976;28;20203;-75
2022/09/25 01:47:37;;;;;;;37.28;28.90;;;12.20;99.90;;;;;;5043755;28;20220;-76
2022/09/25 01:50:13;;;;;;;36.10;27.85;;;12.20;99.90;;;;;;5044153;28;20235;-76
2022/09/25 01:52:43;;;;;;;36.47;27.33;;;12.10;99.90;;;;;;5043300;28;20246;-78
2022/09/25 01:55:29;;;;;;;33.90;26.58;;;12.20;99.90;;;;;;5035756;28;20227;-77
2022/09/25 01:57:58;;;;;;;29.65;25.23;;;12.20;99.90;;;;;;5037611;28;20206;-76
2022/09/25 02:00:25;;;;;;;33.85;27.13;;;12.20;99.90;;;;;;5042078;28;20176;-76
2022/09/25 02:02:56;;;;;;;30.23;27.00;;;12.20;99.90;;;;;;5033511;28;20295;-75
2022/09/25 02:05:45;;;;;;;29.75;26.55;;;12.20;99.90;;;;;;5043400;28;20176;-76
2022/09/25 02:08:19;;;;;;;43.92;28.35;;;12.10;99.90;;;;;;5027308;28;20286;-76
2022/09/25 02:10:59;;;;;;;50.47;26.88;;;12.10;99.90;;;;;;5041506;28;20327;-76
2022/09/25 02:13:33;;;;;;;28.40;24.65;;;12.30;99.90;;;;;;5046543;28;20542;-79
2022/09/25 02:16:08;;;;;;;36.67;25.33;;;12.30;99.90;;;;;;5044018;28;20176;-76
2022/09/25 02:21:35;;;;;;;45.83;26.15;;;12.30;99.90;;;;;;5038150;28;20210;-76
2022/09/25 02:24:18;;;;;;;26.27;23.38;;;12.30;99.90;;;;;;5043665;28;20241;-77
2022/09/25 02:26:43;;;;;;;40.95;26.90;;;12.30;99.90;;;;;;5050171;28;20188;-78
2022/09/25 02:29:09;;;;;;;58.55;28.48;;;12.30;99.90;;;;;;5029439;28;20212;-77
2022/09/25 02:31:39;;;;;;;37.78;27.35;;;12.30;99.90;;;;;;5049891;28;20195;-77
2022/09/25 02:34:05;;;;;;;35.85;30.58;;;12.20;99.90;;;;;;5040725;28;20592;-75
2022/09/25 02:36:32;;;;;;;35.20;30.45;;;12.20;99.90;;;;;;5037784;28;20618;-78
2022/09/25 02:39:01;;;;;;;40.03;30.77;;;12.20;99.90;;;;;;5035991;28;20187;-76
2022/09/25 02:41:57;;;;;;;36.30;29.95;;;12.20;99.90;;;;;;5043084;28;20264;-77
2022/09/25 02:44:56;;;;;;;34.15;29.67;;;12.40;99.90;;;;;;5029615;28;20219;-76
2022/09/25 02:47:56;;;;;;;38.25;30.15;;;12.40;99.90;;;;;;5036488;28;20211;-76
2022/09/25 02:50:40;;;;;;;44.08;32.42;;;12.30;99.90;;;;;;5039571;28;20212;-76
2022/09/25 02:53:17;;;;;;;39.10;31.60;;;12.30;99.90;;;;;;5040477;28;20495;-76
2022/09/25 02:56:07;;;;;;;41.60;30.75;;;12.30;99.90;;;;;;5046349;28;20190;-78
2022/09/25 02:58:44;;;;;;;39.05;31.70;;;12.40;99.90;;;;;;5043408;28;20669;-77
2022/09/25 03:01:14;;;;;;;37.42;31.10;;;12.30;99.90;;;;;;5037558;28;20607;-76
2022/09/25 03:03:42;;;;;;;46.28;33.72;;;12.30;99.90;;;;;;5049122;28;20226;-76
2022/09/25 03:06:08;;;;;;;41.55;33.22;;;12.30;99.90;;;;;;5029183;28;20184;-75
2022/09/25 03:08:42;;;;;;;45.55;34.33;;;12.30;99.90;;;;;;5029631;28;20173;-77
2022/09/25 03:11:11;;;;;;;40.85;33.45;;;12.30;99.90;;;;;;5041356;28;20202;-77
2022/09/25 03:13:38;;;;;;;41.95;34.03;;;12.30;99.90;;;;;;5037930;28;20181;-78
2022/09/25 03:16:33;;;;;;;43.97;32.70;;;12.30;99.90;;;;;;5031816;28;20554;-77
2022/09/25 03:18:59;;;;;;;38.05;32.67;;;12.40;99.90;;;;;;5037432;28;20185;-77
2022/09/25 03:21:25;;;;;;;57.95;35.15;;;12.30;99.90;;;;;;5035115;28;20195;-74
2022/09/25 03:23:51;;;;;;;44.47;34.35;;;12.30;99.90;;;;;;5035154;28;20181;-75
2022/09/25 03:26:16;;;;;;;42.38;33.80;;;12.20;99.90;;;;;;5039465;28;20209;-76
2022/09/25 03:28:42;;;;;;;45.70;34.03;;;12.20;99.90;;;;;;5033719;28;20223;-76
2022/09/25 03:31:10;;;;;;;42.72;33.75;;;12.20;99.90;;;;;;5027567;28;20683;-77
2022/09/25 03:33:39;;;;;;;42.03;33.35;;;12.20;99.90;;;;;;5028788;28;20227;-75
2022/09/25 03:36:09;;;;;;;42.53;34.03;;;12.20;99.90;;;;;;5028967;28;20285;-75
2022/09/25 03:38:36;;;;;;;42.35;32.45;;;12.10;99.90;;;;;;5021678;28;20576;-75
2022/09/25 03:41:02;;;;;;;34.88;29.88;;;12.20;99.90;;;;;;5021659;28;20209;-75
2022/09/25 03:43:32;;;;;;;38.83;31.92;;;12.20;99.90;;;;;;5026208;28;20216;-75
2022/09/25 03:45:58;;;;;;;39.75;30.83;;;12.20;99.90;;;;;;5025290;28;20684;-75
2022/09/25 03:48:23;;;;;;;38.15;31.38;;;12.20;99.90;;;;;;5022468;28;20185;-75
2022/09/25 03:50:49;;;;;;;37.42;31.13;;;12.20;99.90;;;;;;5027392;28;20604;-77
2022/09/25 03:53:17;;;;;;;40.30;32.15;;;12.20;99.90;;;;;;5032827;28;20169;-75
2022/09/25 03:55:45;;;;;;;40.95;31.55;;;12.20;99.90;;;;;;5032181;28;20219;-75
2022/09/25 03:58:13;;;;;;;38.08;29.50;;;12.20;99.90;;;;;;5023593;28;20217;-76
2022/09/25 04:00:39;;;;;;;41.33;32.58;;;12.20;99.90;;;;;;5032618;28;20555;-75
2022/09/25 04:03:05;;;;;;;39.63;32.53;;;12.20;99.90;;;;;;5033545;28;20196;-75
2022/09/25 04:05:31;;;;;;;39.67;31.77;;;12.30;99.90;;;;;;5033016;28;20559;-76
2022/09/25 04:07:56;;;;;;;39.80;31.98;;;12.30;99.90;;;;;;5023331;28;20686;-77
2022/09/25 04:10:22;;;;;;;43.67;32.70;;;12.20;99.90;;;;;;5036781;28;20203;-76
2022/09/25 04:12:53;;;;;;;40.92;32.83;;;12.30;99.90;;;;;;5043898;28;20689;-76
2022/09/25 04:15:21;;;;;;;45.10;33.50;;;12.20;99.90;;;;;;5034596;28;20191;-76
2022/09/25 04:17:48;;;;;;;41.95;33.65;;;12.10;99.90;;;;;;5042422;28;20180;-76
2022/09/25 04:20:13;;;;;;;43.75;33.65;;;12.20;99.90;;;;;;5041310;28;20207;-76
2022/09/25 04:22:39;;;;;;;39.53;32.53;;;12.30;99.90;;;;;;5042482;28;20199;-75
2022/09/25 04:25:06;;;;;;;42.38;33.90;;;12.30;99.90;;;;;;5030043;28;20172;-76
2022/09/25 04:27:32;;;;;;;44.13;32.78;;;12.30;99.90;;;;;;5044006;28;20180;-76
2022/09/25 04:29:57;;;;;;;46.00;34.95;;;12.30;99.90;;;;;;5042115;28;20291;-76
2022/09/25 04:35:08;;;;;;;45.03;33.97;;;12.30;99.90;;;;;;5030053;28;20200;-76
2022/09/25 04:37:34;;;;;;;42.33;31.98;;;12.30;99.90;;;;;;5033748;28;20191;-76
2022/09/25 04:40:00;;;;;;;49.63;36.15;;;12.20;99.90;;;;;;5045204;28;20223;-75
2022/09/25 04:42:26;;;;;;;44.53;33.85;;;12.20;99.90;;;;;;5032940;28;20236;-74
2022/09/25 04:44:53;;;;;;;42.88;33.13;;;12.20;99.90;;;;;;5037247;28;20284;-75
2022/09/25 04:47:23;;;;;;;42.05;34.58;;;12.20;99.90;;;;;;5039098;28;20230;-78
2022/09/25 04:49:49;;;;;;;46.15;34.95;;;12.20;99.90;;;;;;5045081;28;20196;-76
2022/09/25 04:52:16;;;;;;;44.35;33.40;;;12.20;99.90;;;;;;5031147;28;20220;-76
2022/09/25 04:54:42;;;;;;;48.17;35.10;;;12.30;99.90;;;;;;5033733;28;20586;-75
2022/09/25 04:57:09;;;;;;;48.53;35.60;;;12.20;99.90;;;;;;5046715;28;20269;-76
2022/09/25 04:59:36;;;;;;;50.78;36.97;;;12.20;99.90;;;;;;5035847;28;20520;-76
2022/09/25 05:02:01;;;;;;;47.03;35.47;;;12.30;99.90;;;;;;5036898;28;20235;-75
2022/09/25 05:04:27;;;;;;;49.13;35.65;;;12.30;99.90;;;;;;5038428;28;20251;-75
2022/09/25 05:06:53;;;;;;;45.67;35.00;;;12.30;99.90;;;;;;5041783;28;20184;-75
2022/09/25 05:09:19;;;;;;;47.05;34.58;;;12.30;99.90;;;;;;5039368;28;20213;-77
2022/09/25 05:11:46;;;;;;;45.65;33.83;;;12.30;99.90;;;;;;5034706;28;20201;-75
2022/09/25 05:14:11;;;;;;;45.40;33.72;;;12.30;99.90;;;;;;5025329;28;20294;-75
2022/09/25 05:16:37;;;;;;;44.92;33.28;;;12.40;99.90;;;;;;5035406;28;20184;-76
2022/09/25 05:19:03;;;;;;;45.08;34.28;;;12.40;99.90;;;;;;5031983;28;20561;-76
2022/09/25 05:21:29;;;;;;;42.95;33.63;;;12.40;99.90;;;;;;5028898;28;20662;-76
2022/09/25 05:23:55;;;;;;;45.80;35.45;;;12.40;99.90;;;;;;5025326;28;20181;-76
2022/09/25 05:26:22;;;;;;;45.38;35.00;;;12.50;99.90;;;;;;5030216;28;20176;-74
2022/09/25 05:28:57;;;;;;;47.97;36.47;;;12.40;99.90;;;;;;5031050;28;20561;-76
2022/09/25 05:31:23;;;;;;;46.58;35.88;;;12.50;99.90;;;;;;5029256;28;20211;-77
2022/09/25 05:33:50;;;;;;;44.75;33.85;;;12.60;99.90;;;;;;5022251;28;20177;-76
2022/09/25 05:36:17;;;;;;;37.58;31.95;;;12.60;99.90;;;;;;5029587;28;20176;-76
2022/09/25 05:38:43;;;;;;;45.38;32.53;;;12.60;99.90;;;;;;5035486;28;20195;-78
2022/09/25 05:41:09;;;;;;;39.65;31.38;;;12.70;99.90;;;;;;5047319;28;20666;-77
2022/09/25 05:43:40;;;;;;;41.13;33.25;;;12.70;99.90;;;;;;5040644;28;20173;-75
2022/09/25 05:46:06;;;;;;;37.53;30.25;;;12.70;99.90;;;;;;5046887;28;20238;-75
2022/09/25 05:48:35;;;;;;;40.28;31.88;;;12.70;99.90;;;;;;5026745;28;20184;-74
2022/09/25 05:51:01;;;;;;;41.40;30.13;;;12.70;99.90;;;;;;5034332;28;20200;-73
2022/09/25 05:53:27;;;;;;;40.88;32.08;;;12.70;99.90;;;;;;5045207;28;20263;-80
2022/09/25 05:55:58;;;;;;;43.13;32.88;;;12.70;99.90;;;;;;5047288;28;20183;-80
2022/09/25 05:58:26;;;;;;;38.75;31.67;;;12.70;99.90;;;;;;5038828;28;20176;-80
2022/09/25 06:00:53;;;;;;;36.50;30.17;;;12.70;99.90;;;;;;5032526;28;20197;-79
2022/09/25 06:03:20;;;;;;;37.45;30.15;;;12.70;99.90;;;;;;5034291;28;20304;-79
2022/09/25 06:05:46;;;;;;;35.08;29.52;;;12.80;99.90;;;;;;5051023;28;20216;-81
2022/09/25 06:08:13;;;;;;;40.13;31.20;;;12.80;99.90;;;;;;5042775;28;20180;-75
2022/09/25 06:10:40;;;;;;;37.33;30.85;;;12.90;99.90;;;;;;5039048;28;20261;-74
2022/09/25 06:13:06;;;;;;;34.55;28.50;;;13.00;99.90;;;;;;5043927;28;20256;-73
2022/09/25 06:15:37;;;;;;;38.55;31.13;;;13.10;99.90;;;;;;5045380;28;20180;-76
2022/09/25 06:18:06;;;;;;;35.10;28.38;;;13.20;99.90;;;;;;5044194;28;20179;-77
2022/09/25 06:20:32;;;;;;;35.08;29.75;;;13.30;99.90;;;;;;5045082;28;20278;-73
2022/09/25 06:22:59;;;;;;;36.20;29.88;;;13.40;99.90;;;;;;5044361;28;20275;-73
2022/09/25 06:25:27;;;;;;;34.85;28.98;;;13.50;99.90;;;;;;5045834;28;20168;-74
2022/09/25 06:27:59;;;;;;;33.17;29.10;;;13.60;99.90;;;;;;5042196;28;20718;-74
2022/09/25 06:30:29;;;;;;;33.60;28.17;;;13.60;99.90;;;;;;5042808;28;20195;-73
2022/09/25 06:32:57;;;;;;;37.20;31.70;;;13.70;99.90;;;;;;5037579;28;20226;-72
2022/09/25 06:35:22;;;;;;;39.25;30.23;;;13.90;99.90;;;;;;5040889;28;20168;-73
2022/09/25 06:37:48;;;;;;;41.05;31.42;;;13.80;99.90;;;;;;5039710;28;20194;-73
2022/09/25 06:40:14;;;;;;;36.08;30.88;;;13.90;99.90;;;;;;5043542;28;20180;-73
2022/09/25 06:42:40;;;;;;;41.22;32.28;;;13.80;99.90;;;;;;5047670;28;20208;-72
2022/09/25 06:45:06;;;;;;;41.78;31.40;;;13.90;99.90;;;;;;5042112;28;20605;-73
2022/09/25 06:47:32;;;;;;;45.65;32.25;;;14.00;99.90;;;;;;5034468;28;20184;-73
2022/09/25 06:49:58;;;;;;;42.05;32.50;;;14.00;99.90;;;;;;5045776;28;20203;-74
2022/09/25 06:52:24;;;;;;;40.10;31.20;;;13.90;99.90;;;;;;5040583;28;20539;-73
2022/09/25 06:54:50;;;;;;;43.22;32.55;;;14.00;99.90;;;;;;5027532;28;20212;-73
2022/09/25 06:57:15;;;;;;;42.72;31.23;;;14.10;99.90;;;;;;5049075;28;20681;-74
2022/09/25 06:59:41;;;;;;;46.67;32.75;;;14.30;99.90;;;;;;5042046;28;20754;-73
2022/09/25 07:04:52;;;;;;;42.30;30.27;;;14.50;99.90;;;;;;5030412;28;20246;-73
2022/09/25 07:07:19;;;;;;;38.70;29.83;;;14.70;99.90;;;;;;5033484;28;20683;-73
2022/09/25 07:09:47;;;;;;;43.78;31.98;;;14.60;99.90;;;;;;5019359;28;20201;-73
2022/09/25 07:12:17;;;;;;;36.17;27.65;;;14.70;99.90;;;;;;5038462;28;20717;-74
2022/09/25 07:14:45;;;;;;;34.22;28.90;;;14.70;99.90;;;;;;5028975;28;20253;-74
2022/09/25 07:17:12;;;;;;;39.55;29.17;;;14.60;99.90;;;;;;5022730;28;20267;-77
2022/09/25 07:19:37;;;;;;;38.72;30.80;;;14.50;99.90;;;;;;5027829;28;20224;-75
2022/09/25 07:22:03;;;;;;;35.47;27.73;;;14.40;99.90;;;;;;5032491;28;20231;-73
2022/09/25 07:24:30;;;;;;;38.78;29.65;;;14.50;99.90;;;;;;5032661;28;20185;-74
2022/09/25 07:26:55;;;;;;;36.05;27.92;;;14.60;99.90;;;;;;5030088;28;20185;-76
2022/09/25 07:29:21;;;;;;;34.72;27.95;;;14.70;99.90;;;;;;5038357;28;20276;-75
2022/09/25 07:31:46;;;;;;;38.30;28.52;;;14.80;99.90;;;;;;5042025;28;20556;-76
2022/09/25 07:34:12;;;;;;;36.20;26.55;;;14.80;99.90;;;;;;5037926;28;20172;-79
2022/09/25 07:36:40;;;;;;;35.33;27.63;;;14.90;99.90;;;;;;5044049;28;20179;-76
2022/09/25 07:39:06;;;;;;;31.67;26.45;;;14.90;99.90;;;;;;5044132;28;20639;-77
2022/09/25 07:41:33;;;;;;;33.63;27.88;;;15.00;99.90;;;;;;5031119;28;20227;-76
2022/09/25 07:43:59;;;;;;;33.17;27.15;;;15.20;99.90;;;;;;5027964;28;20204;-76
2022/09/25 07:46:26;;;;;;;31.15;26.08;;;15.40;99.90;;;;;;5021561;28;20252;-76
2022/09/25 07:48:52;;;;;;;28.80;23.55;;;15.60;99.90;;;;;;5022832;28;20211;-76
2022/09/25 07:51:20;;;;;;;28.35;23.67;;;15.60;99.90;;;;;;5021235;28;20228;-76
2022/09/25 07:53:46;;;;;;;27.92;23.00;;;15.80;99.90;;;;;;5024589;28;20181;-76
2022/09/25 07:56:13;;;;;;;29.02;23.45;;;15.90;99.90;;;;;;5024709;28;20672;-75
2022/09/25 07:58:40;;;;;;;30.48;22.85;;;15.90;99.90;;;;;;5030697;28;20190;-76
2022/09/25 08:01:08;;;;;;;28.63;22.15;;;15.80;99.90;;;;;;5034831;28;20191;-75
2022/09/25 08:03:34;;;;;;;24.90;20.77;;;16.00;99.90;;;;;;5029055;28;20199;-75
2022/09/25 08:06:08;;;;;;;25.95;20.67;;;15.90;99.90;;;;;;5023839;28;20251;-75
2022/09/25 08:08:34;;;;;;;25.35;21.50;;;15.90;99.90;;;;;;5027791;28;20648;-75
2022/09/25 08:11:02;;;;;;;23.67;20.30;;;16.00;99.90;;;;;;5027573;28;20566;-75
2022/09/25 08:13:31;;;;;;;26.02;21.77;;;16.00;99.90;;;;;;5020710;28;20180;-76
2022/09/25 08:15:57;;;;;;;25.33;21.83;;;16.10;99.90;;;;;;5027991;28;20251;-76
2022/09/25 08:18:22;;;;;;;23.27;20.88;;;16.20;99.90;;;;;;5031513;28;20590;-76
2022/09/25 08:20:48;;;;;;;21.95;19.40;;;16.40;99.90;;;;;;5027295;28;20227;-75
2022/09/25 08:23:14;;;;;;;24.75;21.88;;;16.50;99.90;;;;;;5021195;28;20627;-76
2022/09/25 08:25:39;;;;;;;24.02;21.10;;;16.50;99.90;;;;;;5023787;28;20204;-76
2022/09/25 08:28:05;;;;;;;25.92;20.77;;;16.40;99.90;;;;;;5032578;28;20548;-76
2022/09/25 08:30:31;;;;;;;26.92;20.80;;;16.50;99.90;;;;;;5024454;28;20287;-76
2022/09/25 08:32:57;;;;;;;25.15;21.27;;;16.80;99.90;;;;;;5025829;28;20185;-76
2022/09/25 08:35:23;;;;;;;25.00;21.08;;;17.20;99.90;;;;;;5036327;28;20305;-76
2022/09/25 08:37:48;;;;;;;26.40;21.40;;;17.30;99.90;;;;;;5042974;28;20195;-74
2022/09/25 08:40:19;;;;;;;23.85;20.15;;;17.30;99.90;;;;;;5033387;28;20176;-75
2022/09/25 08:42:47;;;;;;;25.05;21.77;;;17.50;99.90;;;;;;5037022;28;20192;-75
2022/09/25 08:51:09;;;;;;;22.70;19.42;;;17.50;99.90;;;;;;5022958;28;20216;-73
2022/09/25 08:53:37;;;;;;;27.17;20.90;;;17.60;99.90;;;;;;5027495;28;20184;-74
2022/09/25 08:56:13;;;;;;;24.45;20.35;;;17.50;99.90;;;;;;5037694;28;20230;-73
2022/09/25 08:58:49;;;;;;;27.13;21.58;;;17.40;99.90;;;;;;5030580;28;20237;-74
2022/09/25 09:01:22;;;;;;;24.90;20.40;;;17.20;99.90;;;;;;5043008;28;20633;-76
2022/09/25 09:04:00;;;;;;;26.13;21.02;;;16.90;99.90;;;;;;5040229;28;20173;-73
2022/09/25 09:06:28;;;;;;;26.98;22.10;;;16.70;99.90;;;;;;5040903;28;20203;-75
2022/09/25 09:09:16;;;;;;;25.73;21.35;;;16.40;99.90;;;;;;5040430;28;20322;-75
2022/09/25 09:12:05;;;;;;;26.65;21.98;;;16.20;99.90;;;;;;5033850;28;20582;-75
2022/09/25 09:14:39;;;;;;;24.60;20.77;;;16.20;99.90;;;;;;5038419;28;20180;-76
2022/09/25 09:17:16;;;;;;;25.95;21.00;;;16.40;99.90;;;;;;5033223;28;20183;-76
2022/09/25 09:19:45;;;;;;;26.55;20.80;;;16.60;99.90;;;;;;5036094;28;20177;-78
2022/09/25 09:22:12;;;;;;;24.70;19.92;;;16.60;99.90;;;;;;5027837;28;20574;-74
2022/09/25 09:25:02;;;;;;;24.05;20.40;;;16.80;99.90;;;;;;5027083;28;20271;-76
2022/09/25 09:27:47;;;;;;;23.33;20.10;;;16.90;99.90;;;;;;5034044;28;20724;-76
2022/09/25 09:30:22;;;;;;;25.00;19.65;;;17.30;99.90;;;;;;5040092;28;20204;-74
2022/09/25 09:32:54;;;;;;;21.67;19.33;;;17.40;99.90;;;;;;5029366;28;20286;-75
2022/09/25 09:35:54;;;;;;;22.08;18.10;;;17.40;99.90;;;;;;5031293;28;20300;-76
2022/09/25 09:38:28;;;;;;;24.65;18.65;;;17.50;99.90;;;;;;5034730;28;20203;-76
2022/09/25 09:41:03;;;;;;;23.83;19.60;;;17.50;99.90;;;;;;5031522;28;20196;-76
2022/09/25 09:43:45;;;;;;;25.80;20.15;;;17.50;99.90;;;;;;5031210;28;20722;-76
2022/09/25 09:46:47;;;;;;;20.73;17.90;;;17.30;99.90;;;;;;5036023;28;20659;-76
2022/09/25 09:49:24;;;;;;;22.10;17.92;;;17.30;99.90;;;;;;5041830;28;20191;-76
2022/09/25 09:52:09;;;;;;;23.08;19.23;;;17.40;99.90;;;;;;5036905;28;20550;-76
2022/09/25 09:54:51;;;;;;;21.30;17.92;;;17.10;99.90;;;;;;5031467;28;20184;-76
2022/09/25 09:57:29;;;;;;;21.45;19.10;;;16.90;99.90;;;;;;5025407;28;20180;-75
2022/09/25 10:00:00;;;;;;;23.55;16.92;;;16.80;99.90;;;;;;5044771;28;20311;-75
2022/09/25 10:02:54;;;;;;;25.45;19.90;;;16.60;99.90;;;;;;5037243;28;20773;-76
2022/09/25 10:05:31;;;;;;;25.38;19.05;;;16.40;99.90;;;;;;5035721;28;20552;-75
2022/09/25 10:07:57;;;;;;;25.33;20.63;;;16.30;99.90;;;;;;5043398;28;20558;-75
2022/09/25 10:10:34;;;;;;;25.10;19.65;;;16.30;99.90;;;;;;5042251;28;20199;-75
2022/09/25 10:13:05;;;;;;;24.73;18.48;;;16.30;99.90;;;;;;5042342;28;20310;-75
2022/09/25 10:15:39;;;;;;;26.48;18.90;;;16.50;99.90;;;;;;5032258;28;20193;-73
2022/09/25 10:18:06;;;;;;;23.67;18.70;;;16.50;99.90;;;;;;5034388;28;20187;-76
2022/09/25 10:20:51;;;;;;;22.80;18.85;;;16.60;99.90;;;;;;5024371;28;20193;-75
2022/09/25 10:23:38;;;;;;;21.98;18.20;;;16.70;99.90;;;;;;5027941;28;20730;-75
2022/09/25 10:26:26;;;;;;;21.20;17.15;;;16.70;99.90;;;;;;5035137;28;20184;-74
2022/09/25 10:28:52;;;;;;;21.73;17.13;;;17.00;99.90;;;;;;5030270;28;20194;-74
2022/09/25 10:31:19;;;;;;;21.05;18.08;;;17.20;99.90;;;;;;5025111;28;20240;-73
2022/09/25 10:34:03;;;;;;;21.70;17.40;;;17.40;99.90;;;;;;5025215;28;20181;-73
2022/09/25 10:36:41;;;;;;;20.52;16.60;;;17.50;99.90;;;;;;5029772;28;20259;-73
2022/09/25 10:39:34;;;;;;;19.08;16.00;;;17.90;99.90;;;;;;5030215;28;20248;-74
2022/09/25 10:42:02;;;;;;;20.05;16.55;;;18.20;99.90;;;;;;5028210;28;20262;-73
2022/09/25 10:44:32;;;;;;;17.70;14.75;;;18.30;99.90;;;;;;5035512;28;20192;-74
2022/09/25 10:50:25;;;;;;;22.70;18.13;;;18.40;99.90;;;;;;5032889;28;20315;-73
2022/09/25 10:52:58;;;;;;;21.70;17.73;;;18.30;99.90;;;;;;5029646;28;20196;-73
2022/09/25 10:55:27;;;;;;;22.42;16.67;;;18.40;99.90;;;;;;5026367;28;20224;-74
2022/09/25 10:58:13;;;;;;;19.80;15.75;;;18.50;99.90;;;;;;5031528;28;20603;-74
2022/09/25 11:00:50;;;;;;;17.45;14.93;;;18.60;99.90;;;;;;5027175;28;20189;-75
2022/09/25 11:03:24;;;;;;;19.50;16.48;;;18.50;99.90;;;;;;5029158;28;20280;-75
2022/09/25 11:05:57;;;;;;;18.30;14.93;;;18.70;99.90;;;;;;5025378;28;20639;-75
2022/09/25 11:08:29;;;;;;;16.58;13.50;;;19.00;99.90;;;;;;5028916;28;20201;-75
2022/09/25 11:10:57;;;;;;;16.25;14.45;;;19.20;99.90;;;;;;5032189;28;20209;-75
2022/09/25 11:13:35;;;;;;;14.45;12.90;;;19.30;99.90;;;;;;5032712;28;20276;-75
2022/09/25 11:16:03;;;;;;;17.00;13.75;;;19.80;99.90;;;;;;5032738;28;20209;-75
2022/09/25 11:18:39;;;;;;;14.90;13.30;;;20.30;99.90;;;;;;5034689;28;20212;-75
2022/09/25 11:21:27;;;;;;;14.82;13.27;;;20.80;99.90;;;;;;5036275;28;20227;-74
2022/09/25 11:24:13;;;;;;;14.25;12.70;;;21.50;99.90;;;;;;5027989;28;20292;-74
2022/09/25 11:26:54;;;;;;;14.07;12.63;;;22.20;99.90;;;;;;5029856;28;20185;-74
2022/09/25 11:29:41;;;;;;;13.40;12.00;;;22.30;99.90;;;;;;5033106;28;20204;-74
2022/09/25 11:32:36;;;;;;;14.30;12.80;;;21.80;99.90;;;;;;5029531;28;20195;-74
2022/09/25 11:35:39;;;;;;;14.63;13.23;;;21.50;99.90;;;;;;5032893;28;20561;-75
2022/09/25 11:41:10;;;;;;;12.02;10.70;;;21.20;99.90;;;;;;5036238;28;20627;-76
2022/09/25 11:41:35;;;;;;;13.45;11.82;;;21.00;99.90;;;;;;5026955;28;20262;-74
2022/09/25 11:44:20;;;;;;;15.00;13.50;;;20.70;99.90;;;;;;5030976;28;20208;-74
2022/09/25 11:47:06;;;;;;;12.75;11.43;;;20.30;99.90;;;;;;5028105;28;20177;-76
2022/09/25 11:49:40;;;;;;;11.70;10.52;;;20.00;99.90;;;;;;5029198;28;20211;-74
2022/09/25 11:52:16;;;;;;;14.02;11.32;;;19.80;99.90;;;;;;5029223;28;20232;-74
2022/09/25 11:55:13;;;;;;;12.95;11.50;;;20.10;99.90;;;;;;5027600;28;20663;-74
2022/09/25 11:57:51;;;;;;;13.73;11.65;;;20.60;99.90;;;;;;5024841;28;20227;-74
2022/09/25 12:00:19;;;;;;;12.93;11.20;;;20.80;99.90;;;;;;5028953;28;20169;-74
2022/09/25 12:02:55;;;;;;;13.32;11.75;;;20.90;99.90;;;;;;5025756;28;20262;-74
2022/09/25 12:05:46;;;;;;;15.85;12.70;;;21.00;99.90;;;;;;5022296;28;20184;-74
2022/09/25 12:08:17;;;;;;;14.57;11.00;;;21.00;99.90;;;;;;5022153;28;20730;-74
2022/09/25 12:10:54;;;;;;;12.27;11.05;;;21.00;99.90;;;;;;5030389;28;20239;-74
2022/09/25 12:13:37;;;;;;;11.88;10.63;;;21.10;99.90;;;;;;5030067;28;20230;-75
2022/09/25 12:16:09;;;;;;;11.90;10.70;;;21.00;99.90;;;;;;5034988;28;20171;-74
2022/09/25 12:18:45;;;;;;;12.52;11.32;;;20.70;99.90;;;;;;5031010;28;20176;-74
2022/09/25 12:21:14;;;;;;;12.60;9.80;;;20.40;99.90;;;;;;5029396;28;20222;-74
2022/09/25 12:24:03;;;;;;;10.57;9.48;;;20.20;99.90;;;;;;5024297;28;20814;-74
2022/09/25 12:26:51;;;;;;;9.80;8.77;;;19.90;99.90;;;;;;5030583;28;20188;-74
2022/09/25 12:29:45;;;;;;;11.93;10.82;;;19.70;99.90;;;;;;5033706;28;20179;-73
2022/09/25 12:32:49;;;;;;;11.52;10.32;;;19.90;99.90;;;;;;5026871;28;20200;-75
2022/09/25 12:35:52;;;;;;;9.57;8.57;;;19.80;99.90;;;;;;5024815;28;20250;-74
2022/09/25 12:38:39;;;;;;;10.98;9.98;;;20.10;99.90;;;;;;5027146;28;20654;-74
2022/09/25 12:41:34;;;;;;;10.10;9.10;;;20.40;99.90;;;;;;5027433;28;20782;-74
2022/09/25 12:44:24;;;;;;;10.65;9.65;;;20.80;99.90;;;;;;5028945;28;20204;-73
2022/09/25 12:47:16;;;;;;;11.60;10.52;;;21.00;99.90;;;;;;5022977;28;20382;-74
2022/09/25 12:49:50;;;;;;;11.63;10.50;;;21.10;99.90;;;;;;5029545;28;20238;-74
2022/09/25 12:52:28;;;;;;;10.80;9.70;;;21.10;99.90;;;;;;5036662;28;20212;-72
2022/09/25 12:55:25;;;;;;;11.45;10.15;;;21.30;99.90;;;;;;5020613;28;20208;-72
2022/09/25 12:58:20;;;;;;;13.25;11.95;;;21.30;99.90;;;;;;5026004;28;20197;-79
2022/09/25 13:00:50;;;;;;;12.77;11.52;;;21.10;99.90;;;;;;5032336;28;20184;-78
2022/09/25 13:03:43;;;;;;;11.57;10.38;;;21.10;99.90;;;;;;5024757;28;20604;-77
2022/09/25 13:06:15;;;;;;;12.60;10.75;;;21.00;99.90;;;;;;5023728;28;20176;-79
2022/09/25 13:08:51;;;;;;;11.45;10.25;;;21.00;99.90;;;;;;5020472;28;20204;-79
2022/09/25 13:11:35;;;;;;;10.52;9.52;;;20.90;99.90;;;;;;5023895;28;20199;-79
2022/09/25 13:14:01;;;;;;;11.57;10.48;;;21.00;99.90;;;;;;5027389;28;20230;-79